createdAt,value
2022-12-12T00:02:08.793Z,90694.72
2022-12-12T00:04:41.219Z,90698.03
2022-12-12T00:07:13.571Z,90701.34
2022-12-12T00:09:45.894Z,90695.63
2022-12-12T00:12:18.525Z,90714.91
2022-12-12T00:14:51.500Z,90719.22
2022-12-12T00:17:23.851Z,90715.19
2022-12-12T00:19:56.183Z,90730.56
2022-12-12T00:22:28.534Z,90727.56
2022-12-12T00:25:00.870Z,90721.94
2022-12-12T00:27:33.794Z,90708.38
2022-12-12T00:30:08.270Z,90725.84
2022-12-12T00:32:40.597Z,90722.75
2022-12-12T00:35:13.370Z,90714.50
2022-12-12T00:37:45.852Z,90715.34
2022-12-12T00:40:18.245Z,90707.25
2022-12-12T00:42:50.525Z,90692.53
2022-12-12T00:45:23.581Z,90690.97
2022-12-12T00:47:55.914Z,90702.47
2022-12-12T00:50:28.242Z,90703.16
2022-12-12T00:53:00.935Z,90697.44
2022-12-12T00:55:33.312Z,90703.50
2022-12-12T00:58:05.822Z,90701.13
2022-12-12T01:00:40.628Z,90687.09
2022-12-12T01:03:13.040Z,90706.50
2022-12-12T01:05:45.650Z,90706.41
2022-12-12T01:08:18.112Z,90702.25
2022-12-12T01:10:50.551Z,90700.81
2022-12-12T01:13:23.101Z,90705.75
2022-12-12T01:15:56.202Z,90710.66
2022-12-12T01:18:28.607Z,90713.75
2022-12-12T01:21:01.021Z,90710.31
2022-12-12T01:23:33.461Z,90720.81
2022-12-12T01:26:09.109Z,90721.09
2022-12-12T01:28:42.300Z,90714.53
2022-12-12T01:31:15.941Z,90708.72
2022-12-12T01:33:48.353Z,90714.53
2022-12-12T01:36:23.114Z,90715.78
2022-12-12T01:38:56.745Z,90720.94
2022-12-12T01:41:29.093Z,90718.44
2022-12-12T01:44:02.624Z,90722.53
2022-12-12T01:46:42.314Z,90720.75
2022-12-12T01:49:18.849Z,90721.88
2022-12-12T01:51:55.370Z,90722.38
2022-12-12T01:54:31.101Z,90716.03
2022-12-12T01:57:07.938Z,90732.44
2022-12-12T01:59:41.005Z,90729.81
2022-12-12T02:02:14.232Z,90726.69
2022-12-12T02:04:46.652Z,90735.09
2022-12-12T02:07:19.041Z,90736.28
2022-12-12T02:09:51.511Z,90735.78
2022-12-12T02:12:23.872Z,90743.97
2022-12-12T02:14:56.428Z,90750.31
2022-12-12T02:17:46.764Z,90738.56
2022-12-12T02:20:42.147Z,90738.69
2022-12-12T02:23:55.756Z,90742.63
2022-12-12T02:27:04.098Z,90749.25
2022-12-12T02:30:01.945Z,90752.06
2022-12-12T02:32:50.296Z,90744.56
2022-12-12T02:35:33.630Z,90751.13
2022-12-12T02:38:14.251Z,90758.00
2022-12-12T02:40:56.169Z,90753.13
2022-12-12T02:43:36.136Z,90762.00
2022-12-12T02:46:15.535Z,90747.66
2022-12-12T02:48:53.586Z,90750.50
2022-12-12T02:51:27.464Z,90750.66
2022-12-12T02:54:00.461Z,90740.34
2022-12-12T02:56:51.471Z,90739.53
2022-12-12T02:59:27.636Z,90740.03
2022-12-12T03:02:31.724Z,90736.13
2022-12-12T03:05:37.824Z,90735.84
2022-12-12T03:08:24.231Z,90732.31
2022-12-12T03:11:01.383Z,90718.53
2022-12-12T03:13:43.277Z,90738.91
2022-12-12T03:16:27.358Z,90737.94
2022-12-12T03:19:08.397Z,90742.38
2022-12-12T03:22:07.179Z,90728.03
2022-12-12T03:24:48.758Z,90748.06
2022-12-12T03:27:26.834Z,90750.44
2022-12-12T03:30:03.322Z,90762.72
2022-12-12T03:32:41.033Z,90757.16
2022-12-12T03:35:18.235Z,90747.91
2022-12-12T03:37:56.552Z,90734.06
2022-12-12T03:40:33.253Z,90751.91
2022-12-12T03:43:09.959Z,90762.88
2022-12-12T03:45:48.083Z,90764.97
2022-12-12T03:48:27.169Z,90767.81
2022-12-12T03:51:04.501Z,90772.69
2022-12-12T03:53:44.509Z,90759.19
2022-12-12T03:56:20.964Z,90777.09
2022-12-12T03:58:57.296Z,90781.19
2022-12-12T04:01:36.254Z,90778.94
2022-12-12T04:04:13.988Z,90777.63
2022-12-12T04:06:51.231Z,90783.63
2022-12-12T04:09:42.435Z,90782.91
2022-12-12T04:12:37.362Z,90769.56
2022-12-12T04:15:46.140Z,90785.97
2022-12-12T04:18:30.567Z,90797.06
2022-12-12T04:21:33.408Z,90809.19
2022-12-12T04:24:17.180Z,90805.44
2022-12-12T04:26:56.464Z,90807.75
2022-12-12T04:29:37.305Z,90817.59
2022-12-12T04:32:18.227Z,90811.94
2022-12-12T04:34:57.641Z,90805.31
2022-12-12T04:37:35.852Z,90808.72
2022-12-12T04:40:12.720Z,90799.53
2022-12-12T04:42:52.642Z,90794.59
2022-12-12T04:45:30.827Z,90796.25
2022-12-12T04:48:07.983Z,90791.38
2022-12-12T04:51:30.044Z,90801.38
2022-12-12T04:54:09.648Z,90804.28
2022-12-12T04:56:45.071Z,90799.34
2022-12-12T04:59:18.664Z,90800.34
2022-12-12T05:01:55.264Z,90803.50
2022-12-12T05:04:33.189Z,90807.28
2022-12-12T05:07:12.031Z,90805.25
2022-12-12T05:09:44.765Z,90809.41
2022-12-12T05:12:17.302Z,90804.53
2022-12-12T05:14:50.426Z,90811.16
2022-12-12T05:17:30.789Z,90804.28
2022-12-12T05:20:05.219Z,90814.50
2022-12-12T05:22:37.737Z,90814.22
2022-12-12T05:25:10.937Z,90816.53
2022-12-12T05:27:43.470Z,90814.22
2022-12-12T05:30:16.909Z,90820.09
2022-12-12T05:32:49.282Z,90814.91
2022-12-12T05:35:22.125Z,90799.53
2022-12-12T05:37:54.543Z,90818.00
2022-12-12T05:40:26.884Z,90810.84
2022-12-12T05:42:59.239Z,90816.22
2022-12-12T05:45:32.281Z,90820.28
2022-12-12T05:48:05.009Z,90817.88
2022-12-12T05:50:37.403Z,90821.19
2022-12-12T05:53:09.822Z,90825.59
2022-12-12T05:55:42.182Z,90829.91
2022-12-12T05:58:14.509Z,90827.59
2022-12-12T06:00:48.412Z,90826.94
2022-12-12T06:03:20.897Z,90830.41
2022-12-12T06:05:53.220Z,90829.38
2022-12-12T06:08:26.020Z,90820.78
2022-12-12T06:10:58.494Z,90819.97
2022-12-12T06:13:30.859Z,90833.56
2022-12-12T06:16:07.058Z,90843.75
2022-12-12T06:18:39.390Z,90844.22
2022-12-12T06:21:12.994Z,90848.31
2022-12-12T06:23:45.375Z,90836.72
2022-12-12T06:26:19.994Z,90844.22
2022-12-12T06:28:52.395Z,90848.53
2022-12-12T06:31:25.792Z,90850.69
2022-12-12T06:33:58.197Z,90868.91
2022-12-12T06:36:30.548Z,90872.56
2022-12-12T06:39:03.649Z,90876.38
2022-12-12T06:41:36.181Z,90880.78
2022-12-12T06:44:08.646Z,90880.56
2022-12-12T06:46:42.040Z,90882.91
2022-12-12T06:49:14.469Z,90880.94
2022-12-12T06:51:48.077Z,90880.09
2022-12-12T06:54:20.457Z,90893.16
2022-12-12T06:56:52.815Z,90896.59
2022-12-12T06:59:25.215Z,90900.38
2022-12-12T07:01:58.413Z,90902.84
2022-12-12T07:04:30.827Z,90892.47
2022-12-12T07:07:03.215Z,90898.81
2022-12-12T07:09:36.003Z,90905.66
2022-12-12T07:12:08.376Z,90905.81
2022-12-12T07:14:40.725Z,90899.56
2022-12-12T07:17:13.785Z,90907.78
2022-12-12T07:19:46.123Z,90913.13
2022-12-12T07:22:18.640Z,90906.75
2022-12-12T07:24:51.891Z,90919.00
2022-12-12T07:27:24.275Z,90922.28
2022-12-12T07:29:56.618Z,90918.94
2022-12-12T07:32:29.670Z,90923.22
2022-12-12T07:35:02.048Z,90935.19
2022-12-12T07:37:34.428Z,90938.91
2022-12-12T07:40:07.807Z,90948.84
2022-12-12T07:42:40.235Z,90952.53
2022-12-12T07:45:31.931Z,90950.28
2022-12-12T07:48:07.621Z,90954.78
2022-12-12T07:50:40.194Z,90956.25
2022-12-12T07:53:12.580Z,90957.25
2022-12-12T07:55:44.959Z,90958.09
2022-12-12T07:58:17.349Z,90962.09
2022-12-12T08:00:49.776Z,90965.66
2022-12-12T08:03:22.768Z,90966.84
2022-12-12T08:05:55.068Z,90977.09
2022-12-12T08:08:27.486Z,90981.91
2022-12-12T08:10:59.929Z,90978.78
2022-12-12T08:13:33.957Z,90973.94
2022-12-12T08:16:12.015Z,90978.78
2022-12-12T08:18:45.644Z,90991.38
2022-12-12T08:21:24.788Z,90988.69
2022-12-12T08:23:59.123Z,90996.47
2022-12-12T08:26:31.783Z,90995.78
2022-12-12T08:29:04.723Z,91002.91
2022-12-12T08:31:37.943Z,90994.53
2022-12-12T08:34:11.308Z,90992.06
2022-12-12T08:36:44.922Z,90996.75
2022-12-12T08:39:17.347Z,91001.53
2022-12-12T08:41:49.937Z,90994.72
2022-12-12T08:44:22.321Z,90998.25
2022-12-12T08:46:55.036Z,90996.03
2022-12-12T08:49:28.148Z,90992.41
2022-12-12T08:52:00.493Z,90998.72
2022-12-12T08:54:32.834Z,90980.94
2022-12-12T08:57:05.248Z,90992.63
2022-12-12T08:59:37.605Z,90999.50
2022-12-12T09:02:11.869Z,90998.81
2022-12-12T09:04:45.032Z,90993.66
2022-12-12T09:07:17.499Z,90991.31
2022-12-12T09:09:49.869Z,90995.25
2022-12-12T09:12:22.260Z,90997.41
2022-12-12T09:14:54.585Z,90990.50
2022-12-12T09:17:26.957Z,91003.28
2022-12-12T09:19:59.957Z,91005.25
2022-12-12T09:22:32.534Z,90998.72
2022-12-12T09:25:05.675Z,91002.25
2022-12-12T09:27:38.018Z,90996.91
2022-12-12T09:30:11.242Z,90989.72
2022-12-12T09:32:44.444Z,90990.63
2022-12-12T09:35:17.814Z,90986.78
2022-12-12T09:37:50.201Z,90976.59
2022-12-12T09:40:29.536Z,90977.25
2022-12-12T09:43:02.531Z,90978.81
2022-12-12T09:45:38.358Z,90977.41
2022-12-12T09:48:17.193Z,90990.34
2022-12-12T09:50:50.386Z,90987.75
2022-12-12T09:53:25.478Z,90987.41
2022-12-12T09:56:03.176Z,90985.84
2022-12-12T09:58:46.820Z,90982.59
2022-12-12T10:01:26.910Z,90978.97
2022-12-12T10:04:10.367Z,90977.63
2022-12-12T10:06:47.042Z,90975.81
2022-12-12T10:09:35.846Z,90974.38
2022-12-12T10:12:13.709Z,90970.44
2022-12-12T10:14:50.634Z,90964.44
2022-12-12T10:17:27.960Z,90963.94
2022-12-12T10:20:04.753Z,90960.31
2022-12-12T10:22:42.768Z,90955.91
2022-12-12T10:25:21.059Z,90930.09
2022-12-12T10:27:55.141Z,90934.94
2022-12-12T10:30:31.990Z,90940.44
2022-12-12T10:33:15.896Z,90925.03
2022-12-12T10:35:54.155Z,90917.69
2022-12-12T10:38:47.505Z,90913.28
2022-12-12T10:41:30.793Z,90895.66
2022-12-12T10:44:09.479Z,90900.44
2022-12-12T10:46:45.527Z,90900.44
2022-12-12T10:49:20.858Z,90908.09
2022-12-12T10:51:55.354Z,90912.00
2022-12-12T10:54:32.024Z,90916.47
2022-12-12T10:57:08.506Z,90917.72
2022-12-12T10:59:43.164Z,90921.03
2022-12-12T11:02:27.325Z,90923.06
2022-12-12T11:05:09.782Z,90898.31
2022-12-12T11:07:44.974Z,90906.50
2022-12-12T11:10:31.985Z,90911.56
2022-12-12T11:13:15.620Z,90918.84
2022-12-12T11:15:51.710Z,90922.13
2022-12-12T11:18:24.791Z,90911.28
2022-12-12T11:21:06.442Z,90909.75
2022-12-12T11:23:41.311Z,90914.19
2022-12-12T11:26:18.628Z,90906.97
2022-12-12T11:28:57.831Z,90907.38
2022-12-12T11:31:33.973Z,90898.69
2022-12-12T11:34:06.869Z,90900.31
2022-12-12T11:36:41.410Z,90893.72
2022-12-12T11:39:16.451Z,90900.59
2022-12-12T11:42:01.023Z,90901.81
2022-12-12T11:44:35.778Z,90896.00
2022-12-12T11:47:29.577Z,90896.75
2022-12-12T11:50:04.966Z,90894.19
2022-12-12T11:52:41.149Z,90889.09
2022-12-12T11:55:16.592Z,90892.75
2022-12-12T11:58:14.357Z,90884.16
2022-12-12T12:00:59.529Z,90884.97
2022-12-12T12:03:54.816Z,90888.53
2022-12-12T12:06:38.169Z,90880.31
2022-12-12T12:09:25.036Z,90878.91
2022-12-12T12:12:06.472Z,90878.91
2022-12-12T12:15:01.974Z,90871.16
2022-12-12T12:17:57.817Z,90873.91
2022-12-12T12:20:43.428Z,90867.72
2022-12-12T12:23:23.640Z,90865.53
2022-12-12T12:26:03.525Z,90862.94
2022-12-12T12:29:01.466Z,90856.97
2022-12-12T12:31:43.600Z,90847.38
2022-12-12T12:34:23.702Z,90839.81
2022-12-12T12:37:09.262Z,90848.28
2022-12-12T12:39:59.618Z,90851.06
2022-12-12T12:42:50.004Z,90857.34
2022-12-12T12:45:29.463Z,90855.25
2022-12-12T12:48:10.871Z,90858.38
2022-12-12T12:50:47.265Z,90858.63
2022-12-12T12:53:28.884Z,90858.19
2022-12-12T12:56:08.653Z,90850.31
2022-12-12T12:58:46.787Z,90841.34
2022-12-12T13:01:24.588Z,90858.88
2022-12-12T13:04:02.488Z,90855.78
2022-12-12T13:06:43.533Z,90855.75
2022-12-12T13:09:25.125Z,90857.97
2022-12-12T13:12:05.210Z,90864.97
2022-12-12T13:14:45.168Z,90870.97
2022-12-12T13:17:21.566Z,90862.94
2022-12-12T13:19:57.342Z,90856.75
2022-12-12T13:22:46.311Z,90859.31
2022-12-12T13:25:30.515Z,90854.94
2022-12-12T13:28:07.517Z,90857.03
2022-12-12T13:30:54.982Z,90860.84
2022-12-12T13:33:37.693Z,90861.91
2022-12-12T13:36:16.653Z,90865.59
2022-12-12T13:38:51.532Z,90868.50
2022-12-12T13:41:23.930Z,90874.72
2022-12-12T13:43:57.904Z,90869.72
2022-12-12T13:46:40.834Z,90861.25
2022-12-12T13:49:34.024Z,90872.06
2022-12-12T13:52:25.195Z,90872.41
2022-12-12T13:55:19.063Z,90877.88
2022-12-12T13:58:15.994Z,90881.59
2022-12-12T14:00:48.544Z,90879.34
2022-12-12T14:03:29.872Z,90872.06
2022-12-12T14:06:18.656Z,90874.34
2022-12-12T14:08:53.371Z,90876.75
2022-12-12T14:11:30.456Z,90876.84
2022-12-12T14:14:22.170Z,90881.81
2022-12-12T14:16:56.332Z,90880.47
2022-12-12T14:19:34.386Z,90886.81
2022-12-12T14:22:06.918Z,90883.19
2022-12-12T14:24:58.607Z,90878.47
2022-12-12T14:28:10.582Z,90872.06
2022-12-12T14:30:57.571Z,90870.94
2022-12-12T14:34:08.279Z,90879.00
2022-12-12T14:37:11.481Z,90873.41
2022-12-12T14:39:55.602Z,90867.22
2022-12-12T14:43:20.264Z,90876.97
2022-12-12T14:45:36.564Z,90867.69
2022-12-12T14:48:11.014Z,90863.13
2022-12-12T14:50:47.430Z,90869.13
2022-12-12T14:53:24.249Z,90864.53
2022-12-12T14:56:00.129Z,90860.31
2022-12-12T14:58:36.772Z,90851.41
2022-12-12T15:01:09.642Z,90858.59
2022-12-12T15:03:46.066Z,90854.38
2022-12-12T15:06:30.252Z,90858.47
2022-12-12T15:09:24.844Z,90866.00
2022-12-12T15:12:13.317Z,90859.31
2022-12-12T15:14:54.997Z,90868.34
2022-12-12T15:17:29.554Z,90862.53
2022-12-12T15:20:05.430Z,90869.50
2022-12-12T15:22:48.127Z,90865.28
2022-12-12T15:25:23.263Z,90865.56
2022-12-12T15:27:56.804Z,90864.03
2022-12-12T15:30:32.807Z,90862.59
2022-12-12T15:33:08.042Z,90865.75
2022-12-12T15:35:48.924Z,90852.25
2022-12-12T15:38:21.681Z,90853.97
2022-12-12T15:40:57.690Z,90852.13
2022-12-12T15:43:31.282Z,90848.50
2022-12-12T15:46:13.305Z,90847.19
2022-12-12T15:48:48.268Z,90845.19
2022-12-12T15:51:24.997Z,90846.13
2022-12-12T15:53:58.904Z,90853.53
2022-12-12T15:56:31.321Z,90876.47
2022-12-12T15:59:15.803Z,90866.88
2022-12-12T16:01:48.203Z,90869.53
2022-12-12T16:04:24.192Z,90867.84
2022-12-12T16:07:19.986Z,90875.44
2022-12-12T16:10:00.187Z,90889.16
2022-12-12T16:12:55.150Z,90893.22
2022-12-12T16:15:37.717Z,90899.75
2022-12-12T16:18:17.277Z,90907.75
2022-12-12T16:20:51.518Z,90918.22
2022-12-12T16:23:28.625Z,90925.09
2022-12-12T16:26:00.988Z,90932.97
2022-12-12T16:28:33.480Z,90939.91
2022-12-12T16:31:15.466Z,90949.22
2022-12-12T16:33:48.836Z,90963.47
2022-12-12T16:36:21.407Z,90958.44
2022-12-12T16:38:53.774Z,90965.00
2022-12-12T16:41:26.607Z,90959.91
2022-12-12T16:43:59.206Z,90974.72
2022-12-12T16:46:32.266Z,90981.94
2022-12-12T16:49:05.123Z,90968.81
2022-12-12T16:51:40.662Z,90986.78
2022-12-12T16:54:16.481Z,90999.50
2022-12-12T16:56:51.883Z,91004.59
2022-12-12T16:59:24.294Z,90999.19
2022-12-12T17:01:57.305Z,90997.09
2022-12-12T17:04:31.524Z,91007.03
2022-12-12T17:07:07.283Z,91005.75
2022-12-12T17:09:39.796Z,91007.25
2022-12-12T17:12:12.452Z,91002.28
2022-12-12T17:14:44.853Z,91016.56
2022-12-12T17:17:18.216Z,91015.81
2022-12-12T17:19:50.697Z,91019.91
2022-12-12T17:22:23.127Z,91025.88
2022-12-12T17:24:55.501Z,91024.63
2022-12-12T17:27:27.827Z,91037.63
2022-12-12T17:30:00.338Z,91035.16
2022-12-12T17:32:33.896Z,91037.50
2022-12-12T17:35:07.742Z,91052.91
2022-12-12T17:37:40.114Z,91048.69
2022-12-12T17:40:13.087Z,91066.47
2022-12-12T17:42:45.690Z,91053.59
2022-12-12T17:45:18.681Z,91066.78
2022-12-12T17:47:51.908Z,91072.25
2022-12-12T17:50:24.212Z,91078.84
2022-12-12T17:52:56.606Z,91087.34
2022-12-12T17:55:53.473Z,91099.69
2022-12-12T17:58:23.891Z,91098.19
2022-12-12T18:01:00.687Z,91112.63
2022-12-12T18:03:34.601Z,91124.66
2022-12-12T18:06:07.963Z,91122.28
2022-12-12T18:08:40.934Z,91114.19
2022-12-12T18:11:15.941Z,91090.56
2022-12-12T18:13:48.285Z,91109.09
2022-12-12T18:16:22.874Z,91116.41
2022-12-12T18:18:56.490Z,91141.53
2022-12-12T18:24:24.733Z,91137.03
2022-12-12T18:26:58.526Z,91147.81
2022-12-12T18:29:31.566Z,91156.00
2022-12-12T18:32:04.989Z,91127.78
2022-12-12T18:34:38.049Z,91159.06
2022-12-12T18:37:10.659Z,91173.25
2022-12-12T18:39:43.203Z,91169.94
2022-12-12T18:42:15.607Z,91158.63
2022-12-12T18:44:48.505Z,91154.50
2022-12-12T18:47:21.034Z,91170.69
2022-12-12T18:49:54.080Z,91172.50
2022-12-12T18:52:26.523Z,91170.94
2022-12-12T18:54:58.914Z,91170.19
2022-12-12T18:57:31.872Z,91171.72
2022-12-12T19:00:06.669Z,91171.19
2022-12-12T19:02:39.817Z,91154.00
2022-12-12T19:05:13.798Z,91159.41
2022-12-12T19:07:46.558Z,91152.97
2022-12-12T19:10:19.035Z,91150.38
2022-12-12T19:12:51.450Z,91156.56
2022-12-12T19:15:23.793Z,91159.88
2022-12-12T19:17:57.084Z,91154.72
2022-12-12T19:20:30.366Z,91165.53
2022-12-12T19:23:02.760Z,91164.25
2022-12-12T19:25:42.353Z,91160.94
2022-12-12T19:28:15.258Z,91158.88
2022-12-12T19:30:47.926Z,91160.69
2022-12-12T19:33:20.368Z,91160.19
2022-12-12T19:35:53.387Z,91158.13
2022-12-12T19:38:25.886Z,91150.66
2022-12-12T19:41:02.601Z,91156.31
2022-12-12T19:43:35.552Z,91158.09
2022-12-12T19:46:11.135Z,91155.28
2022-12-12T19:48:44.023Z,91147.84
2022-12-12T19:51:19.669Z,91143.47
2022-12-12T19:53:54.710Z,91144.00
2022-12-12T19:56:29.485Z,91136.81
2022-12-12T19:59:02.142Z,91140.91
2022-12-12T20:01:36.279Z,91152.22
2022-12-12T20:04:14.533Z,91150.44
2022-12-12T20:06:48.702Z,91157.84
2022-12-12T20:09:23.110Z,91153.25
2022-12-12T20:11:56.784Z,91152.22
2022-12-12T20:14:31.249Z,91159.41
2022-12-12T20:17:03.867Z,91159.16
2022-12-12T20:19:36.574Z,91172.25
2022-12-12T20:22:09.654Z,91171.47
2022-12-12T20:24:43.937Z,91184.81
2022-12-12T20:27:16.314Z,91191.47
2022-12-12T20:29:48.865Z,91196.38
2022-12-12T20:32:23.512Z,91194.81
2022-12-12T20:34:55.900Z,91196.88
2022-12-12T20:37:30.767Z,91200.72
2022-12-12T20:40:04.036Z,91194.81
2022-12-12T20:42:36.350Z,91200.44
2022-12-12T20:45:09.444Z,91207.88
2022-12-12T20:47:41.851Z,91203.47
2022-12-12T20:50:14.470Z,91210.91
2022-12-12T20:52:47.534Z,91210.16
2022-12-12T20:55:19.940Z,91224.69
2022-12-12T20:57:52.339Z,91219.00
2022-12-12T21:00:25.871Z,91235.19
2022-12-12T21:02:58.220Z,91226.94
2022-12-12T21:05:30.639Z,91231.03
2022-12-12T21:08:03.981Z,91238.94
2022-12-12T21:10:36.461Z,91236.59
2022-12-12T21:13:08.923Z,91252.28
2022-12-12T21:15:41.303Z,91258.22
2022-12-12T21:18:13.653Z,91262.56
2022-12-12T21:20:46.051Z,91265.69
2022-12-12T21:23:20.237Z,91268.56
2022-12-12T21:25:52.580Z,91275.72
2022-12-12T21:28:24.912Z,91283.94
2022-12-12T21:30:57.748Z,91290.03
2022-12-12T21:33:30.093Z,91290.84
2022-12-12T21:36:03.842Z,91284.97
2022-12-12T21:38:37.643Z,91294.47
2022-12-12T21:41:12.271Z,91301.69
2022-12-12T21:43:44.826Z,91298.59
2022-12-12T21:46:19.305Z,91299.94
2022-12-12T21:49:07.528Z,91301.75
2022-12-12T21:51:40.589Z,91291.97
2022-12-12T21:54:15.271Z,91296.38
2022-12-12T21:56:48.206Z,91291.72
2022-12-12T21:59:20.671Z,91298.69
2022-12-12T22:01:54.231Z,91302.53
2022-12-12T22:04:27.555Z,91299.19
2022-12-12T22:06:59.948Z,91305.38
2022-12-12T22:09:32.925Z,91312.06
2022-12-12T22:12:05.680Z,91314.06
2022-12-12T22:14:38.129Z,91305.66
2022-12-12T22:17:10.506Z,91308.50
2022-12-12T22:19:42.863Z,91300.00
2022-12-12T22:22:15.248Z,91302.09
2022-12-12T22:24:48.292Z,91300.28
2022-12-12T22:27:20.674Z,91305.44
2022-12-12T22:29:53.029Z,91301.31
2022-12-12T22:32:27.135Z,91309.50
2022-12-12T22:34:59.436Z,91320.31
2022-12-12T22:37:31.813Z,91320.53
2022-12-12T22:40:06.282Z,91323.41
2022-12-12T22:42:38.713Z,91322.38
2022-12-12T22:45:11.435Z,91330.81
2022-12-12T22:47:43.954Z,91336.97
2022-12-12T22:50:16.523Z,91340.06
2022-12-12T22:52:49.034Z,91342.88
2022-12-12T22:55:22.017Z,91346.50
2022-12-12T22:57:54.437Z,91345.16
2022-12-12T23:00:26.846Z,91344.16
2022-12-12T23:02:59.323Z,91342.09
2022-12-12T23:05:31.782Z,91341.84
2022-12-12T23:08:04.791Z,91334.91
2022-12-12T23:10:38.025Z,91332.88
2022-12-12T23:13:10.403Z,91333.63
2022-12-12T23:15:42.732Z,91333.16
2022-12-12T23:18:15.220Z,91337.47
2022-12-12T23:20:47.582Z,91332.13
2022-12-12T23:23:19.940Z,91336.47
2022-12-12T23:25:53.435Z,91338.75
2022-12-12T23:28:25.933Z,91322.88
2022-12-12T23:30:58.487Z,91322.09
2022-12-12T23:33:30.917Z,91323.88
2022-12-12T23:36:03.604Z,91324.09
2022-12-12T23:38:36.091Z,91332.31
2022-12-12T23:41:11.294Z,91334.88
2022-12-12T23:43:43.927Z,91339.50
2022-12-12T23:46:27.605Z,91341.06
2022-12-12T23:49:02.158Z,91340.34
2022-12-12T23:51:36.854Z,91339.09
2022-12-12T23:54:11.083Z,91348.47
2022-12-12T23:56:44.958Z,91343.63
2022-12-12T23:59:19.526Z,91359.78
